sensor_id;sensor_type;location;lat;lon;timestamp;temperature;humidity
40257;DHT22;25977;45.462;9.210;2023-06-05T00:02:02;20.70;86.30
40257;DHT22;25977;45.462;9.210;2023-06-05T00:04:27;20.70;86.10
40257;DHT22;25977;45.462;9.210;2023-06-05T00:06:54;20.70;86.20
40257;DHT22;25977;45.462;9.210;2023-06-05T00:09:20;20.70;86.20
40257;DHT22;25977;45.462;9.210;2023-06-05T00:11:46;20.70;86.20
40257;DHT22;25977;45.462;9.210;2023-06-05T00:14:11;20.80;86.20
40257;DHT22;25977;45.462;9.210;2023-06-05T00:16:38;20.80;86.30
40257;DHT22;25977;45.462;9.210;2023-06-05T00:19:04;20.80;86.30
40257;DHT22;25977;45.462;9.210;2023-06-05T00:21:30;20.80;85.90
40257;DHT22;25977;45.462;9.210;2023-06-05T00:23:56;20.80;85.70
40257;DHT22;25977;45.462;9.210;2023-06-05T00:26:21;20.80;85.80
40257;DHT22;25977;45.462;9.210;2023-06-05T00:28:48;20.80;85.80
40257;DHT22;25977;45.462;9.210;2023-06-05T00:31:14;20.80;85.70
40257;DHT22;25977;45.462;9.210;2023-06-05T00:33:40;20.80;85.70
40257;DHT22;25977;45.462;9.210;2023-06-05T00:36:06;20.80;85.70
40257;DHT22;25977;45.462;9.210;2023-06-05T00:38:32;20.70;85.70
40257;DHT22;25977;45.462;9.210;2023-06-05T00:40:58;20.70;85.90
40257;DHT22;25977;45.462;9.210;2023-06-05T00:43:24;20.70;85.90
40257;DHT22;25977;45.462;9.210;2023-06-05T00:45:55;20.80;86.10
40257;DHT22;25977;45.462;9.210;2023-06-05T00:48:22;20.80;85.90
40257;DHT22;25977;45.462;9.210;2023-06-05T00:50:48;20.80;86.10
40257;DHT22;25977;45.462;9.210;2023-06-05T00:53:14;20.80;86.30
40257;DHT22;25977;45.462;9.210;2023-06-05T00:55:40;20.80;86.40
40257;DHT22;25977;45.462;9.210;2023-06-05T00:58:06;20.80;86.50
40257;DHT22;25977;45.462;9.210;2023-06-05T01:00:33;20.80;86.50
40257;DHT22;25977;45.462;9.210;2023-06-05T01:02:59;20.80;86.60
40257;DHT22;25977;45.462;9.210;2023-06-05T01:05:25;20.90;86.80
40257;DHT22;25977;45.462;9.210;2023-06-05T01:07:51;20.90;86.70
40257;DHT22;25977;45.462;9.210;2023-06-05T01:10:19;20.90;86.80
40257;DHT22;25977;45.462;9.210;2023-06-05T01:12:57;20.90;87.30
40257;DHT22;25977;45.462;9.210;2023-06-05T01:15:24;20.90;86.60
40257;DHT22;25977;45.462;9.210;2023-06-05T01:18:00;20.90;86.20
40257;DHT22;25977;45.462;9.210;2023-06-05T01:20:52;20.90;85.80
40257;DHT22;25977;45.462;9.210;2023-06-05T01:23:21;20.90;85.30
40257;DHT22;25977;45.462;9.210;2023-06-05T01:25:51;20.90;84.90
40257;DHT22;25977;45.462;9.210;2023-06-05T01:28:23;20.90;84.80
40257;DHT22;25977;45.462;9.210;2023-06-05T01:33:29;20.80;85.70
40257;DHT22;25977;45.462;9.210;2023-06-05T01:35:56;20.80;85.80
40257;DHT22;25977;45.462;9.210;2023-06-05T01:38:22;20.90;85.90
40257;DHT22;25977;45.462;9.210;2023-06-05T01:40:50;20.90;86.10
40257;DHT22;25977;45.462;9.210;2023-06-05T01:43:17;20.90;86.30
40257;DHT22;25977;45.462;9.210;2023-06-05T01:45:43;20.80;86.50
40257;DHT22;25977;45.462;9.210;2023-06-05T01:48:10;20.80;86.70
40257;DHT22;25977;45.462;9.210;2023-06-05T01:50:38;20.90;86.80
40257;DHT22;25977;45.462;9.210;2023-06-05T01:53:07;20.80;86.70
40257;DHT22;25977;45.462;9.210;2023-06-05T01:55:33;20.90;86.70
40257;DHT22;25977;45.462;9.210;2023-06-05T01:57:59;20.80;86.70
40257;DHT22;25977;45.462;9.210;2023-06-05T02:00:25;20.90;86.70
40257;DHT22;25977;45.462;9.210;2023-06-05T02:02:51;20.80;86.60
40257;DHT22;25977;45.462;9.210;2023-06-05T02:05:17;20.90;86.60
40257;DHT22;25977;45.462;9.210;2023-06-05T02:07:46;20.90;86.60
40257;DHT22;25977;45.462;9.210;2023-06-05T02:10:19;20.90;86.70
40257;DHT22;25977;45.462;9.210;2023-06-05T02:12:45;20.90;86.70
40257;DHT22;25977;45.462;9.210;2023-06-05T02:15:11;20.90;86.80
40257;DHT22;25977;45.462;9.210;2023-06-05T02:17:42;20.90;86.90
40257;DHT22;25977;45.462;9.210;2023-06-05T02:20:12;20.90;87.00
40257;DHT22;25977;45.462;9.210;2023-06-05T02:22:38;20.90;87.20
40257;DHT22;25977;45.462;9.210;2023-06-05T02:25:05;20.90;87.50
40257;DHT22;25977;45.462;9.210;2023-06-05T02:27:32;20.90;87.80
40257;DHT22;25977;45.462;9.210;2023-06-05T02:29:58;20.90;88.00
40257;DHT22;25977;45.462;9.210;2023-06-05T02:32:24;20.90;88.20
40257;DHT22;25977;45.462;9.210;2023-06-05T02:34:52;20.90;88.30
40257;DHT22;25977;45.462;9.210;2023-06-05T02:37:18;20.90;88.20
40257;DHT22;25977;45.462;9.210;2023-06-05T02:39:48;20.80;87.90
40257;DHT22;25977;45.462;9.210;2023-06-05T02:42:14;20.80;88.10
40257;DHT22;25977;45.462;9.210;2023-06-05T02:44:40;20.70;88.30
40257;DHT22;25977;45.462;9.210;2023-06-05T02:47:06;20.70;88.30
40257;DHT22;25977;45.462;9.210;2023-06-05T02:49:32;20.80;88.40
40257;DHT22;25977;45.462;9.210;2023-06-05T02:51:59;20.80;88.30
40257;DHT22;25977;45.462;9.210;2023-06-05T02:54:25;20.80;88.20
40257;DHT22;25977;45.462;9.210;2023-06-05T02:56:54;20.80;88.00
40257;DHT22;25977;45.462;9.210;2023-06-05T02:59:23;20.80;88.00
40257;DHT22;25977;45.462;9.210;2023-06-05T03:01:52;20.80;87.90
40257;DHT22;25977;45.462;9.210;2023-06-05T03:04:18;20.80;87.90
40257;DHT22;25977;45.462;9.210;2023-06-05T03:06:49;20.80;87.90
40257;DHT22;25977;45.462;9.210;2023-06-05T03:09:16;20.80;87.80
40257;DHT22;25977;45.462;9.210;2023-06-05T03:11:43;20.80;87.70
40257;DHT22;25977;45.462;9.210;2023-06-05T03:14:09;20.80;87.60
40257;DHT22;25977;45.462;9.210;2023-06-05T03:16:36;20.80;87.60
40257;DHT22;25977;45.462;9.210;2023-06-05T03:19:11;21.30;87.50
40257;DHT22;25977;45.462;9.210;2023-06-05T03:21:38;20.80;87.20
40257;DHT22;25977;45.462;9.210;2023-06-05T03:24:10;20.80;87.30
40257;DHT22;25977;45.462;9.210;2023-06-05T03:26:42;20.70;86.90
40257;DHT22;25977;45.462;9.210;2023-06-05T03:29:10;20.70;87.00
40257;DHT22;25977;45.462;9.210;2023-06-05T03:31:36;20.70;87.00
40257;DHT22;25977;45.462;9.210;2023-06-05T03:34:02;20.70;87.20
40257;DHT22;25977;45.462;9.210;2023-06-05T03:36:30;20.60;86.90
40257;DHT22;25977;45.462;9.210;2023-06-05T03:39:01;20.70;87.60
40257;DHT22;25977;45.462;9.210;2023-06-05T03:41:28;20.70;87.10
40257;DHT22;25977;45.462;9.210;2023-06-05T03:43:54;20.70;87.00
40257;DHT22;25977;45.462;9.210;2023-06-05T03:46:20;20.70;86.80
40257;DHT22;25977;45.462;9.210;2023-06-05T03:48:48;20.70;87.00
40257;DHT22;25977;45.462;9.210;2023-06-05T03:51:15;20.70;87.20
40257;DHT22;25977;45.462;9.210;2023-06-05T03:53:44;20.70;87.10
40257;DHT22;25977;45.462;9.210;2023-06-05T03:56:11;20.70;86.70
40257;DHT22;25977;45.462;9.210;2023-06-05T03:58:40;20.60;86.50
40257;DHT22;25977;45.462;9.210;2023-06-05T04:01:07;20.70;86.30
40257;DHT22;25977;45.462;9.210;2023-06-05T04:03:33;20.70;86.40
40257;DHT22;25977;45.462;9.210;2023-06-05T04:06:03;20.70;86.30
40257;DHT22;25977;45.462;9.210;2023-06-05T04:08:30;20.70;86.30
40257;DHT22;25977;45.462;9.210;2023-06-05T04:10:56;20.80;86.40
40257;DHT22;25977;45.462;9.210;2023-06-05T04:13:22;20.80;86.90
40257;DHT22;25977;45.462;9.210;2023-06-05T04:15:48;20.70;87.50
40257;DHT22;25977;45.462;9.210;2023-06-05T04:18:15;20.70;87.90
40257;DHT22;25977;45.462;9.210;2023-06-05T04:20:41;20.70;88.20
40257;DHT22;25977;45.462;9.210;2023-06-05T04:23:08;20.70;88.60
40257;DHT22;25977;45.462;9.210;2023-06-05T04:25:38;20.70;89.00
40257;DHT22;25977;45.462;9.210;2023-06-05T04:28:06;20.70;89.20
40257;DHT22;25977;45.462;9.210;2023-06-05T04:30:32;20.70;89.30
40257;DHT22;25977;45.462;9.210;2023-06-05T04:32:58;20.80;89.10
40257;DHT22;25977;45.462;9.210;2023-06-05T04:35:25;20.80;89.00
40257;DHT22;25977;45.462;9.210;2023-06-05T04:37:52;20.80;89.10
40257;DHT22;25977;45.462;9.210;2023-06-05T04:40:19;20.80;89.50
40257;DHT22;25977;45.462;9.210;2023-06-05T04:42:45;20.80;89.60
40257;DHT22;25977;45.462;9.210;2023-06-05T04:45:11;20.80;89.80
40257;DHT22;25977;45.462;9.210;2023-06-05T04:47:41;20.70;89.90
40257;DHT22;25977;45.462;9.210;2023-06-05T04:50:07;20.70;89.80
40257;DHT22;25977;45.462;9.210;2023-06-05T04:52:35;20.70;90.00
40257;DHT22;25977;45.462;9.210;2023-06-05T04:55:02;20.60;90.10
40257;DHT22;25977;45.462;9.210;2023-06-05T04:57:30;20.60;90.20
40257;DHT22;25977;45.462;9.210;2023-06-05T04:59:56;20.50;90.30
40257;DHT22;25977;45.462;9.210;2023-06-05T05:02:23;20.60;90.30
40257;DHT22;25977;45.462;9.210;2023-06-05T05:04:49;20.50;90.10
40257;DHT22;25977;45.462;9.210;2023-06-05T05:07:15;20.70;90.00
40257;DHT22;25977;45.462;9.210;2023-06-05T05:09:45;20.80;89.60
40257;DHT22;25977;45.462;9.210;2023-06-05T05:12:12;20.80;89.90
40257;DHT22;25977;45.462;9.210;2023-06-05T05:14:38;20.90;89.30
40257;DHT22;25977;45.462;9.210;2023-06-05T05:17:07;20.90;88.90
40257;DHT22;25977;45.462;9.210;2023-06-05T05:19:37;20.90;88.60
40257;DHT22;25977;45.462;9.210;2023-06-05T05:22:07;20.90;87.80
40257;DHT22;25977;45.462;9.210;2023-06-05T05:24:33;20.70;89.00
40257;DHT22;25977;45.462;9.210;2023-06-05T05:27:00;20.60;89.60
40257;DHT22;25977;45.462;9.210;2023-06-05T05:29:26;20.60;89.50
40257;DHT22;25977;45.462;9.210;2023-06-05T05:31:52;20.60;90.00
40257;DHT22;25977;45.462;9.210;2023-06-05T05:34:18;20.60;90.00
40257;DHT22;25977;45.462;9.210;2023-06-05T05:36:44;20.60;89.90
40257;DHT22;25977;45.462;9.210;2023-06-05T05:39:10;20.50;89.60
40257;DHT22;25977;45.462;9.210;2023-06-05T05:41:35;20.40;90.10
40257;DHT22;25977;45.462;9.210;2023-06-05T05:44:01;20.40;90.10
40257;DHT22;25977;45.462;9.210;2023-06-05T05:46:27;20.50;90.20
40257;DHT22;25977;45.462;9.210;2023-06-05T05:48:53;20.50;90.30
40257;DHT22;25977;45.462;9.210;2023-06-05T05:51:20;20.50;90.30
40257;DHT22;25977;45.462;9.210;2023-06-05T05:53:46;20.50;89.60
40257;DHT22;25977;45.462;9.210;2023-06-05T05:56:12;20.40;89.00
40257;DHT22;25977;45.462;9.210;2023-06-05T05:58:37;20.40;89.00
40257;DHT22;25977;45.462;9.210;2023-06-05T06:01:03;20.60;89.00
40257;DHT22;25977;45.462;9.210;2023-06-05T06:03:29;20.60;89.00
40257;DHT22;25977;45.462;9.210;2023-06-05T06:06:00;20.50;89.30
40257;DHT22;25977;45.462;9.210;2023-06-05T06:08:27;20.40;89.10
40257;DHT22;25977;45.462;9.210;2023-06-05T06:10:53;20.40;89.30
40257;DHT22;25977;45.462;9.210;2023-06-05T06:13:20;20.40;89.40
40257;DHT22;25977;45.462;9.210;2023-06-05T06:15:46;20.40;89.40
40257;DHT22;25977;45.462;9.210;2023-06-05T06:18:12;20.40;89.60
40257;DHT22;25977;45.462;9.210;2023-06-05T06:20:37;20.50;89.40
40257;DHT22;25977;45.462;9.210;2023-06-05T06:23:07;20.50;89.70
40257;DHT22;25977;45.462;9.210;2023-06-05T06:25:33;20.50;89.90
40257;DHT22;25977;45.462;9.210;2023-06-05T06:28:02;20.50;89.80
40257;DHT22;25977;45.462;9.210;2023-06-05T06:30:28;20.50;90.00
40257;DHT22;25977;45.462;9.210;2023-06-05T06:32:54;20.50;90.00
40257;DHT22;25977;45.462;9.210;2023-06-05T06:35:26;20.50;90.10
40257;DHT22;25977;45.462;9.210;2023-06-05T06:37:55;20.50;90.20
40257;DHT22;25977;45.462;9.210;2023-06-05T06:40:22;20.40;90.00
40257;DHT22;25977;45.462;9.210;2023-06-05T06:42:48;20.40;90.00
40257;DHT22;25977;45.462;9.210;2023-06-05T06:45:25;20.40;90.20
40257;DHT22;25977;45.462;9.210;2023-06-05T06:47:51;20.50;89.60
40257;DHT22;25977;45.462;9.210;2023-06-05T06:50:17;20.50;90.10
40257;DHT22;25977;45.462;9.210;2023-06-05T06:52:42;20.60;89.50
40257;DHT22;25977;45.462;9.210;2023-06-05T06:55:08;20.70;89.40
40257;DHT22;25977;45.462;9.210;2023-06-05T06:57:34;20.70;89.60
40257;DHT22;25977;45.462;9.210;2023-06-05T07:00:00;20.80;89.80
40257;DHT22;25977;45.462;9.210;2023-06-05T07:02:26;20.80;89.90
40257;DHT22;25977;45.462;9.210;2023-06-05T07:04:51;20.70;89.40
40257;DHT22;25977;45.462;9.210;2023-06-05T07:07:19;20.70;89.80
40257;DHT22;25977;45.462;9.210;2023-06-05T07:09:48;20.70;90.10
40257;DHT22;25977;45.462;9.210;2023-06-05T07:12:15;20.80;90.10
40257;DHT22;25977;45.462;9.210;2023-06-05T07:14:42;20.80;90.20
40257;DHT22;25977;45.462;9.210;2023-06-05T07:17:08;20.70;90.00
40257;DHT22;25977;45.462;9.210;2023-06-05T07:19:34;20.80;90.10
40257;DHT22;25977;45.462;9.210;2023-06-05T07:22:02;20.90;90.20
40257;DHT22;25977;45.462;9.210;2023-06-05T07:24:30;20.90;90.20
40257;DHT22;25977;45.462;9.210;2023-06-05T07:27:00;20.90;90.20
40257;DHT22;25977;45.462;9.210;2023-06-05T07:29:26;20.90;90.10
40257;DHT22;25977;45.462;9.210;2023-06-05T07:31:54;20.90;90.10
40257;DHT22;25977;45.462;9.210;2023-06-05T07:34:21;20.90;90.20
40257;DHT22;25977;45.462;9.210;2023-06-05T07:36:48;20.90;90.40
40257;DHT22;25977;45.462;9.210;2023-06-05T07:39:14;21.00;90.40
40257;DHT22;25977;45.462;9.210;2023-06-05T07:41:40;21.00;90.30
40257;DHT22;25977;45.462;9.210;2023-06-05T07:44:09;20.80;90.20
40257;DHT22;25977;45.462;9.210;2023-06-05T07:46:36;20.80;90.30
40257;DHT22;25977;45.462;9.210;2023-06-05T07:49:01;20.80;90.40
40257;DHT22;25977;45.462;9.210;2023-06-05T07:51:27;20.90;90.50
40257;DHT22;25977;45.462;9.210;2023-06-05T07:53:53;20.80;89.80
40257;DHT22;25977;45.462;9.210;2023-06-05T07:56:19;20.90;90.00
40257;DHT22;25977;45.462;9.210;2023-06-05T07:58:49;20.70;90.20
40257;DHT22;25977;45.462;9.210;2023-06-05T08:01:14;20.60;90.30
40257;DHT22;25977;45.462;9.210;2023-06-05T08:03:41;20.70;90.40
40257;DHT22;25977;45.462;9.210;2023-06-05T08:06:09;20.80;90.50
40257;DHT22;25977;45.462;9.210;2023-06-05T08:08:35;20.90;90.50
40257;DHT22;25977;45.462;9.210;2023-06-05T08:11:01;20.90;90.50
40257;DHT22;25977;45.462;9.210;2023-06-05T08:13:26;21.00;90.50
40257;DHT22;25977;45.462;9.210;2023-06-05T08:15:52;21.10;90.40
40257;DHT22;25977;45.462;9.210;2023-06-05T08:18:18;21.00;90.40
40257;DHT22;25977;45.462;9.210;2023-06-05T08:20:43;21.00;90.40
40257;DHT22;25977;45.462;9.210;2023-06-05T08:23:09;21.00;90.50
40257;DHT22;25977;45.462;9.210;2023-06-05T08:25:35;21.00;90.70
40257;DHT22;25977;45.462;9.210;2023-06-05T08:28:01;21.00;90.80
40257;DHT22;25977;45.462;9.210;2023-06-05T08:30:27;21.10;90.80
40257;DHT22;25977;45.462;9.210;2023-06-05T08:32:53;21.00;90.70
40257;DHT22;25977;45.462;9.210;2023-06-05T08:35:19;21.10;90.60
40257;DHT22;25977;45.462;9.210;2023-06-05T08:37:44;21.20;90.60
40257;DHT22;25977;45.462;9.210;2023-06-05T08:40:11;21.30;90.60
40257;DHT22;25977;45.462;9.210;2023-06-05T08:42:38;21.30;90.50
40257;DHT22;25977;45.462;9.210;2023-06-05T08:45:08;21.20;90.10
40257;DHT22;25977;45.462;9.210;2023-06-05T08:47:36;21.20;90.30
40257;DHT22;25977;45.462;9.210;2023-06-05T08:50:05;21.30;90.40
40257;DHT22;25977;45.462;9.210;2023-06-05T08:52:37;21.40;90.30
40257;DHT22;25977;45.462;9.210;2023-06-05T08:55:06;21.30;89.80
40257;DHT22;25977;45.462;9.210;2023-06-05T08:57:34;21.30;90.10
40257;DHT22;25977;45.462;9.210;2023-06-05T09:00:02;21.20;90.00
40257;DHT22;25977;45.462;9.210;2023-06-05T09:02:33;21.20;90.00
40257;DHT22;25977;45.462;9.210;2023-06-05T09:04:58;21.30;90.10
40257;DHT22;25977;45.462;9.210;2023-06-05T09:07:27;21.40;90.00
40257;DHT22;25977;45.462;9.210;2023-06-05T09:09:54;21.40;89.60
40257;DHT22;25977;45.462;9.210;2023-06-05T09:12:19;21.40;89.30
40257;DHT22;25977;45.462;9.210;2023-06-05T09:14:45;21.50;89.40
40257;DHT22;25977;45.462;9.210;2023-06-05T09:17:14;21.60;89.30
40257;DHT22;25977;45.462;9.210;2023-06-05T09:19:40;21.70;88.50
40257;DHT22;25977;45.462;9.210;2023-06-05T09:22:08;21.80;88.70
40257;DHT22;25977;45.462;9.210;2023-06-05T09:24:35;21.90;88.60
40257;DHT22;25977;45.462;9.210;2023-06-05T09:27:01;22.00;87.70
40257;DHT22;25977;45.462;9.210;2023-06-05T09:29:45;22.10;87.70
40257;DHT22;25977;45.462;9.210;2023-06-05T09:34:39;22.10;86.50
40257;DHT22;25977;45.462;9.210;2023-06-05T09:37:06;22.10;85.80
40257;DHT22;25977;45.462;9.210;2023-06-05T09:39:33;22.10;85.30
40257;DHT22;25977;45.462;9.210;2023-06-05T09:41:59;22.10;84.70
40257;DHT22;25977;45.462;9.210;2023-06-05T09:44:25;21.80;85.00
40257;DHT22;25977;45.462;9.210;2023-06-05T09:49:18;21.80;86.10
40257;DHT22;25977;45.462;9.210;2023-06-05T09:51:44;21.90;86.00
40257;DHT22;25977;45.462;9.210;2023-06-05T09:54:10;22.10;85.60
40257;DHT22;25977;45.462;9.210;2023-06-05T09:56:36;22.30;85.10
40257;DHT22;25977;45.462;9.210;2023-06-05T09:59:04;22.40;85.10
40257;DHT22;25977;45.462;9.210;2023-06-05T10:01:31;22.30;84.20
40257;DHT22;25977;45.462;9.210;2023-06-05T10:04:08;22.30;84.30
40257;DHT22;25977;45.462;9.210;2023-06-05T10:06:34;22.20;84.50
40257;DHT22;25977;45.462;9.210;2023-06-05T10:08:59;22.30;84.50
40257;DHT22;25977;45.462;9.210;2023-06-05T10:11:26;22.30;84.90
40257;DHT22;25977;45.462;9.210;2023-06-05T10:13:52;22.40;84.90
40257;DHT22;25977;45.462;9.210;2023-06-05T10:16:18;22.40;84.30
40257;DHT22;25977;45.462;9.210;2023-06-05T10:18:45;22.30;85.00
40257;DHT22;25977;45.462;9.210;2023-06-05T10:21:12;22.40;84.20
40257;DHT22;25977;45.462;9.210;2023-06-05T10:23:37;22.30;84.50
40257;DHT22;25977;45.462;9.210;2023-06-05T10:26:04;22.50;84.10
40257;DHT22;25977;45.462;9.210;2023-06-05T10:31:30;22.70;82.90
40257;DHT22;25977;45.462;9.210;2023-06-05T10:39:07;22.70;82.40
40257;DHT22;25977;45.462;9.210;2023-06-05T10:41:33;22.80;82.50
40257;DHT22;25977;45.462;9.210;2023-06-05T10:43:58;22.80;83.00
40257;DHT22;25977;45.462;9.210;2023-06-05T10:46:31;22.90;82.70
40257;DHT22;25977;45.462;9.210;2023-06-05T10:49:16;22.90;82.60
40257;DHT22;25977;45.462;9.210;2023-06-05T10:54:14;23.10;82.80
40257;DHT22;25977;45.462;9.210;2023-06-05T10:56:56;23.20;81.80
40257;DHT22;25977;45.462;9.210;2023-06-05T10:59:25;23.30;82.00
40257;DHT22;25977;45.462;9.210;2023-06-05T11:07:18;23.10;81.30
40257;DHT22;25977;45.462;9.210;2023-06-05T11:15:11;22.80;83.80
40257;DHT22;25977;45.462;9.210;2023-06-05T11:20:03;22.40;84.90
40257;DHT22;25977;45.462;9.210;2023-06-05T11:27:53;22.90;83.60
40257;DHT22;25977;45.462;9.210;2023-06-05T11:30:20;22.90;83.40
40257;DHT22;25977;45.462;9.210;2023-06-05T11:32:46;23.10;83.10
40257;DHT22;25977;45.462;9.210;2023-06-05T11:35:12;23.20;82.40
40257;DHT22;25977;45.462;9.210;2023-06-05T11:37:38;23.30;81.10
40257;DHT22;25977;45.462;9.210;2023-06-05T11:40:05;23.50;80.80
40257;DHT22;25977;45.462;9.210;2023-06-05T11:42:37;23.40;79.80
40257;DHT22;25977;45.462;9.210;2023-06-05T11:45:12;23.40;79.90
40257;DHT22;25977;45.462;9.210;2023-06-05T11:47:38;23.20;79.30
40257;DHT22;25977;45.462;9.210;2023-06-05T11:50:06;23.30;79.70
40257;DHT22;25977;45.462;9.210;2023-06-05T11:52:33;23.30;79.80
40257;DHT22;25977;45.462;9.210;2023-06-05T11:55:12;23.30;79.00
40257;DHT22;25977;45.462;9.210;2023-06-05T11:57:41;23.30;79.30
40257;DHT22;25977;45.462;9.210;2023-06-05T12:00:08;23.40;79.50
40257;DHT22;25977;45.462;9.210;2023-06-05T12:02:35;23.40;79.60
40257;DHT22;25977;45.462;9.210;2023-06-05T12:05:01;23.40;79.70
40257;DHT22;25977;45.462;9.210;2023-06-05T12:07:30;23.50;79.50
40257;DHT22;25977;45.462;9.210;2023-06-05T12:09:57;23.50;79.10
40257;DHT22;25977;45.462;9.210;2023-06-05T12:12:23;23.50;79.10
40257;DHT22;25977;45.462;9.210;2023-06-05T12:14:49;23.40;79.40
40257;DHT22;25977;45.462;9.210;2023-06-05T12:17:15;23.30;79.50
40257;DHT22;25977;45.462;9.210;2023-06-05T12:19:41;23.00;79.10
40257;DHT22;25977;45.462;9.210;2023-06-05T12:22:06;23.10;79.60
40257;DHT22;25977;45.462;9.210;2023-06-05T12:24:34;23.30;79.30
40257;DHT22;25977;45.462;9.210;2023-06-05T12:27:03;23.30;78.60
40257;DHT22;25977;45.462;9.210;2023-06-05T12:29:32;23.20;78.90
40257;DHT22;25977;45.462;9.210;2023-06-05T12:31:58;23.30;78.70
40257;DHT22;25977;45.462;9.210;2023-06-05T12:37:06;23.40;78.80
40257;DHT22;25977;45.462;9.210;2023-06-05T12:39:33;23.50;78.20
40257;DHT22;25977;45.462;9.210;2023-06-05T12:41:59;23.60;77.20
40257;DHT22;25977;45.462;9.210;2023-06-05T12:44:24;23.60;77.00
40257;DHT22;25977;45.462;9.210;2023-06-05T12:46:50;23.20;76.80
40257;DHT22;25977;45.462;9.210;2023-06-05T12:49:16;23.30;78.00
40257;DHT22;25977;45.462;9.210;2023-06-05T12:51:41;23.40;77.90
40257;DHT22;25977;45.462;9.210;2023-06-05T12:54:07;23.50;77.70
40257;DHT22;25977;45.462;9.210;2023-06-05T12:56:33;23.70;76.90
40257;DHT22;25977;45.462;9.210;2023-06-05T12:59:00;23.80;76.70
40257;DHT22;25977;45.462;9.210;2023-06-05T13:01:26;23.90;76.60
40257;DHT22;25977;45.462;9.210;2023-06-05T13:03:54;24.00;76.10
40257;DHT22;25977;45.462;9.210;2023-06-05T13:06:19;23.80;76.40
40257;DHT22;25977;45.462;9.210;2023-06-05T13:08:45;23.80;76.60
40257;DHT22;25977;45.462;9.210;2023-06-05T13:11:12;23.80;76.70
40257;DHT22;25977;45.462;9.210;2023-06-05T13:13:38;23.90;75.90
40257;DHT22;25977;45.462;9.210;2023-06-05T13:16:04;24.00;75.90
40257;DHT22;25977;45.462;9.210;2023-06-05T13:18:34;24.00;76.10
40257;DHT22;25977;45.462;9.210;2023-06-05T13:21:00;23.80;76.20
40257;DHT22;25977;45.462;9.210;2023-06-05T13:23:26;23.40;77.90
40257;DHT22;25977;45.462;9.210;2023-06-05T13:25:52;23.50;78.20
40257;DHT22;25977;45.462;9.210;2023-06-05T13:28:18;23.50;77.90
40257;DHT22;25977;45.462;9.210;2023-06-05T13:30:43;23.40;78.10
40257;DHT22;25977;45.462;9.210;2023-06-05T13:33:09;23.40;78.40
40257;DHT22;25977;45.462;9.210;2023-06-05T13:35:35;23.40;78.30
40257;DHT22;25977;45.462;9.210;2023-06-05T13:38:00;23.40;78.10
40257;DHT22;25977;45.462;9.210;2023-06-05T13:40:26;23.30;77.30
40257;DHT22;25977;45.462;9.210;2023-06-05T13:42:57;23.10;77.80
40257;DHT22;25977;45.462;9.210;2023-06-05T13:45:23;23.30;77.80
40257;DHT22;25977;45.462;9.210;2023-06-05T13:47:49;23.30;77.60
40257;DHT22;25977;45.462;9.210;2023-06-05T13:50:14;23.30;77.60
40257;DHT22;25977;45.462;9.210;2023-06-05T13:52:40;23.30;78.00
40257;DHT22;25977;45.462;9.210;2023-06-05T13:55:05;23.20;78.40
40257;DHT22;25977;45.462;9.210;2023-06-05T13:57:31;23.20;78.70
40257;DHT22;25977;45.462;9.210;2023-06-05T13:59:57;23.10;79.00
40257;DHT22;25977;45.462;9.210;2023-06-05T14:02:22;23.20;79.40
40257;DHT22;25977;45.462;9.210;2023-06-05T14:04:48;23.30;79.10
40257;DHT22;25977;45.462;9.210;2023-06-05T14:07:13;23.00;79.40
40257;DHT22;25977;45.462;9.210;2023-06-05T14:09:39;23.20;79.40
40257;DHT22;25977;45.462;9.210;2023-06-05T14:12:05;23.30;79.00
40257;DHT22;25977;45.462;9.210;2023-06-05T14:14:30;23.00;79.10
40257;DHT22;25977;45.462;9.210;2023-06-05T14:16:56;23.00;79.50
40257;DHT22;25977;45.462;9.210;2023-06-05T14:19:22;23.20;79.70
40257;DHT22;25977;45.462;9.210;2023-06-05T14:21:47;23.30;79.10
40257;DHT22;25977;45.462;9.210;2023-06-05T14:24:15;23.30;79.00
40257;DHT22;25977;45.462;9.210;2023-06-05T14:26:40;23.10;79.20
40257;DHT22;25977;45.462;9.210;2023-06-05T14:29:06;23.10;79.60
40257;DHT22;25977;45.462;9.210;2023-06-05T14:31:32;23.20;79.50
40257;DHT22;25977;45.462;9.210;2023-06-05T14:33:57;23.20;79.60
40257;DHT22;25977;45.462;9.210;2023-06-05T14:36:23;23.40;79.50
40257;DHT22;25977;45.462;9.210;2023-06-05T14:38:48;23.50;78.50
40257;DHT22;25977;45.462;9.210;2023-06-05T14:41:14;23.30;78.40
40257;DHT22;25977;45.462;9.210;2023-06-05T14:43:39;23.00;78.90
40257;DHT22;25977;45.462;9.210;2023-06-05T14:46:05;23.10;79.30
40257;DHT22;25977;45.462;9.210;2023-06-05T14:48:31;23.10;79.70
40257;DHT22;25977;45.462;9.210;2023-06-05T14:50:56;23.00;79.70
40257;DHT22;25977;45.462;9.210;2023-06-05T14:53:23;23.10;79.20
40257;DHT22;25977;45.462;9.210;2023-06-05T14:55:49;23.10;79.20
40257;DHT22;25977;45.462;9.210;2023-06-05T14:58:15;23.20;78.90
40257;DHT22;25977;45.462;9.210;2023-06-05T15:00:40;23.00;79.00
40257;DHT22;25977;45.462;9.210;2023-06-05T15:03:06;23.20;78.60
40257;DHT22;25977;45.462;9.210;2023-06-05T15:05:31;23.10;78.90
40257;DHT22;25977;45.462;9.210;2023-06-05T15:07:57;23.20;78.80
40257;DHT22;25977;45.462;9.210;2023-06-05T15:10:24;23.20;79.10
40257;DHT22;25977;45.462;9.210;2023-06-05T15:12:49;23.40;78.60
40257;DHT22;25977;45.462;9.210;2023-06-05T15:15:21;23.40;78.50
40257;DHT22;25977;45.462;9.210;2023-06-05T15:17:47;23.50;78.60
40257;DHT22;25977;45.462;9.210;2023-06-05T15:20:13;23.70;78.60
40257;DHT22;25977;45.462;9.210;2023-06-05T15:22:38;23.70;78.20
40257;DHT22;25977;45.462;9.210;2023-06-05T15:25:04;23.70;77.90
40257;DHT22;25977;45.462;9.210;2023-06-05T15:27:30;23.90;77.70
40257;DHT22;25977;45.462;9.210;2023-06-05T15:29:55;23.90;77.30
40257;DHT22;25977;45.462;9.210;2023-06-05T15:32:21;23.70;77.80
40257;DHT22;25977;45.462;9.210;2023-06-05T15:34:47;23.70;77.70
40257;DHT22;25977;45.462;9.210;2023-06-05T15:37:12;23.70;76.10
40257;DHT22;25977;45.462;9.210;2023-06-05T15:39:38;23.70;76.50
40257;DHT22;25977;45.462;9.210;2023-06-05T15:42:04;23.80;77.20
40257;DHT22;25977;45.462;9.210;2023-06-05T15:44:31;23.90;76.10
40257;DHT22;25977;45.462;9.210;2023-06-05T15:46:56;23.90;75.30
40257;DHT22;25977;45.462;9.210;2023-06-05T15:49:22;23.90;75.50
40257;DHT22;25977;45.462;9.210;2023-06-05T15:51:48;23.60;76.30
40257;DHT22;25977;45.462;9.210;2023-06-05T15:54:13;23.70;76.60
40257;DHT22;25977;45.462;9.210;2023-06-05T15:56:40;23.80;76.60
40257;DHT22;25977;45.462;9.210;2023-06-05T15:59:05;23.90;76.60
40257;DHT22;25977;45.462;9.210;2023-06-05T16:01:31;23.90;74.80
40257;DHT22;25977;45.462;9.210;2023-06-05T16:03:56;23.80;76.40
40257;DHT22;25977;45.462;9.210;2023-06-05T16:06:22;23.90;76.60
40257;DHT22;25977;45.462;9.210;2023-06-05T16:08:47;23.90;76.50